Jaipur International Airport

Airport
ICAO code: 
VIJP
Summary
ICAO Region: 
APAC
Territory: 
Location: 
Jaipur, Rajasthan,
Coordinates: 
Aerial View: 
26° 49' 40.964" N, 75° 48' 21.553" E
Airport WX: 
Cumulonimbus
Metar
Observation
VIJP 280430Z 09004KT 2000 FU NSC 24/11 Q1020 NOSIG
Station
Jaipur / Sanganer
Date/Time
2021-11-28 04:30:00
Wind direction
90°
Wind speed
04 kts
Lowest cloud amount
nil significant cloud
Temperature
24°C
Dew point
11°C
Humidity
44%
QNH
1020 hPa
Weather condition
n/a

Description

Jaipur Airport is an international airport located 13 km south of the central business district of Jaipur, the capital of the state of Rajasthan, Indian.

Climatology

Humid “subtropical” climate (Köppen climate classification Cfa) - characterized by hot, humid summers and cool winters. Most precipitation occurs during the monsoon season between late June and late September. Most summer rainfall occurs during thunderstorms. During winter, overnight radiation fog is often a problem.

Runways

Designator Length Width Surface Rops
15/33 1592 45 ASP No/No
9/27 2797 45 PEM Yes/Yes
Airport map: 
Aerial View: 

Accidents and Serious Incidents at or in the vicinity of VIJP

SKYbrary Partners:

Safety knowledge contributed by: